createdAt,value
2018-03-06T00:00:53.286Z,80.95
2018-03-06T00:01:52.976Z,81.42
2018-03-06T00:02:53.225Z,82.09
2018-03-06T00:03:53.216Z,82.28
2018-03-06T00:04:53.194Z,82.28
2018-03-06T00:05:53.180Z,82.46
2018-03-06T00:06:53.911Z,82.65
2018-03-06T00:07:53.143Z,82.37
2018-03-06T00:08:53.130Z,82.56
2018-03-06T00:09:53.948Z,82.84
2018-03-06T00:10:53.085Z,82.65
2018-03-06T00:11:53.069Z,83.22
2018-03-06T00:12:53.043Z,82.93
2018-03-06T00:13:53.857Z,83.4
2018-03-06T00:14:53.019Z,83.69
2018-03-06T00:15:52.706Z,83.31
2018-03-06T00:16:53.106Z,83.4
2018-03-06T00:17:52.670Z,83.03
2018-03-06T00:18:52.919Z,82.65
2018-03-06T00:19:52.903Z,82.14
2018-03-06T00:20:52.895Z,81.33
2018-03-06T00:21:52.595Z,80.85
2018-03-06T00:22:52.882Z,80.95
2018-03-06T00:23:52.833Z,81.61
2018-03-06T00:24:53.691Z,81.23
2018-03-06T00:25:52.786Z,81.23
2018-03-06T00:26:52.780Z,81.85
2018-03-06T00:27:53.287Z,81.61
2018-03-06T00:28:52.726Z,81.61
2018-03-06T00:29:52.441Z,80.85
2018-03-06T00:30:52.427Z,80.76
2018-03-06T00:31:52.402Z,81.61
2018-03-06T00:32:52.674Z,81.14
2018-03-06T00:33:52.637Z,81.14
2018-03-06T00:34:52.616Z,80.95
2018-03-06T00:35:53.366Z,81.14
2018-03-06T00:36:52.579Z,81.04
2018-03-06T00:37:52.284Z,81.14
2018-03-06T00:38:52.537Z,80.76
2018-03-06T00:39:53.386Z,80.85
2018-03-06T00:40:52.497Z,80
2018-03-06T00:41:52.213Z,80
2018-03-06T00:42:53.313Z,79.63
2018-03-06T00:43:52.451Z,79.91
2018-03-06T00:44:52.426Z,80
2018-03-06T00:45:53.295Z,80
2018-03-06T00:46:52.400Z,79.91
2018-03-06T00:47:52.371Z,80.06
2018-03-06T00:48:52.084Z,79.97
2018-03-06T00:49:53.094Z,80.1
2018-03-06T00:50:52.317Z,79.97
2018-03-06T00:51:52.295Z,79.87
2018-03-06T00:52:53.198Z,79.35
2018-03-06T00:53:51.978Z,79.49
2018-03-06T00:54:52.254Z,78.45
2018-03-06T00:55:52.204Z,78.59
2018-03-06T00:56:52.205Z,78.59
2018-03-06T00:57:52.168Z,78.27
2018-03-06T00:58:51.881Z,78.17
2018-03-06T00:59:53.055Z,77.74
2018-03-06T01:00:52.135Z,77.55
2018-03-06T01:01:52.103Z,77.51
2018-03-06T01:02:52.331Z,77.26
2018-03-06T01:03:52.058Z,77.17
2018-03-06T01:04:51.767Z,76.98
2018-03-06T01:05:51.747Z,76.57
2018-03-06T01:06:52.843Z,76.51
2018-03-06T01:07:51.716Z,76.14
2018-03-06T01:08:51.958Z,75.76
2018-03-06T01:09:51.673Z,75.76
2018-03-06T01:10:52.537Z,76.42
2018-03-06T01:11:51.631Z,76.61
2018-03-06T01:12:51.883Z,77.26
2018-03-06T01:13:51.602Z,77.64
2018-03-06T01:14:51.840Z,77.93
2018-03-06T01:15:51.830Z,78.12
2018-03-06T01:16:51.817Z,77.93
2018-03-06T01:17:51.519Z,77.93
2018-03-06T01:18:51.499Z,77.83
2018-03-06T01:19:51.753Z,77.93
2018-03-06T01:20:51.460Z,78.12
2018-03-06T01:21:52.410Z,77.74
2018-03-06T01:22:51.689Z,77.74
2018-03-06T01:23:51.404Z,78.12
2018-03-06T01:24:51.682Z,77.64
2018-03-06T01:25:51.365Z,77.93
2018-03-06T01:26:51.347Z,78.21
2018-03-06T01:27:51.326Z,78.12
2018-03-06T01:28:51.307Z,77.26
2018-03-06T01:29:51.289Z,77.36
2018-03-06T01:30:51.555Z,77.55
2018-03-06T01:31:51.878Z,77.64
2018-03-06T01:32:51.232Z,77.26
2018-03-06T01:33:51.485Z,76.79
2018-03-06T01:34:52.323Z,76.14
2018-03-06T01:35:51.443Z,75.85
2018-03-06T01:36:51.155Z,75.28
2018-03-06T01:37:51.778Z,74.62
2018-03-06T01:38:51.117Z,74.34
2018-03-06T01:39:51.097Z,74.43
2018-03-06T01:40:51.347Z,74.24
2018-03-06T01:41:52.202Z,74.62
2018-03-06T01:42:51.313Z,75.28
2018-03-06T01:43:51.298Z,74.43
2018-03-06T01:44:52.155Z,73.86
2018-03-06T01:45:51.266Z,74.15
2018-03-06T01:46:50.964Z,74.71
2018-03-06T01:47:52.142Z,75.28
2018-03-06T01:48:51.200Z,75.38
2018-03-06T01:49:50.908Z,76.32
2018-03-06T01:50:51.164Z,75.85
2018-03-06T01:51:51.624Z,75.57
2018-03-06T01:52:51.137Z,75
2018-03-06T01:53:50.830Z,75.57
2018-03-06T01:54:51.665Z,75.62
2018-03-06T01:55:50.790Z,75.15
2018-03-06T01:56:51.050Z,75
2018-03-06T01:57:51.844Z,74.68
2018-03-06T01:58:51.028Z,74.77
2018-03-06T01:59:50.996Z,74.87
2018-03-06T02:00:50.695Z,74.58
2018-03-06T02:01:51.488Z,75.15
2018-03-06T02:02:50.658Z,75.47
2018-03-06T02:03:50.910Z,76
2018-03-06T02:04:51.822Z,76.57
2018-03-06T02:05:50.885Z,76.76
2018-03-06T02:06:50.858Z,76.76
2018-03-06T02:07:50.835Z,76.66
2018-03-06T02:08:51.389Z,77.13
2018-03-06T02:09:50.817Z,76.95
2018-03-06T02:10:50.792Z,76.19
2018-03-06T02:11:51.377Z,76.85
2018-03-06T02:12:50.749Z,76.66
2018-03-06T02:13:50.712Z,76.66
2018-03-06T02:14:50.709Z,76.76
2018-03-06T02:15:51.351Z,76.85
2018-03-06T02:16:50.658Z,76.95
2018-03-06T02:17:50.642Z,76.66
2018-03-06T02:18:50.626Z,76.38
2018-03-06T02:19:51.542Z,76.66
2018-03-06T02:20:50.576Z,76.76
2018-03-06T02:21:50.570Z,75.81
2018-03-06T02:22:50.539Z,74.58
2018-03-06T02:23:51.062Z,74.49
2018-03-06T02:24:50.235Z,73.55
2018-03-06T02:25:50.484Z,73.26
2018-03-06T02:26:51.636Z,73.26
2018-03-06T02:27:50.493Z,73.17
2018-03-06T02:28:50.438Z,73.74
2018-03-06T02:29:50.406Z,73.55
2018-03-06T02:30:51.063Z,73.26
2018-03-06T02:31:50.373Z,72.41
2018-03-06T02:32:50.080Z,72.6
2018-03-06T02:33:50.329Z,72.69
2018-03-06T02:34:51.194Z,72.41
2018-03-06T02:35:50.316Z,73.07
2018-03-06T02:36:50.004Z,73.55
2018-03-06T02:37:50.269Z,73.74
2018-03-06T02:38:49.964Z,73.64
2018-03-06T02:39:49.948Z,73.55
2018-03-06T02:40:49.927Z,73.36
2018-03-06T02:41:49.912Z,73.74
2018-03-06T02:42:50.164Z,73.26
2018-03-06T02:43:49.868Z,72.88
2018-03-06T02:44:49.848Z,72.69
2018-03-06T02:45:50.105Z,72.41
2018-03-06T02:46:50.077Z,73.26
2018-03-06T02:47:49.802Z,73.45
2018-03-06T02:48:50.778Z,73.17
2018-03-06T02:49:50.020Z,73.17
2018-03-06T02:50:49.733Z,73.74
2018-03-06T02:51:50.010Z,73.55
2018-03-06T02:52:50.379Z,73.07
2018-03-06T02:53:49.945Z,72.41
2018-03-06T02:54:49.925Z,72.79
2018-03-06T02:55:50.627Z,72.13
2018-03-06T02:56:49.883Z,72.32
2018-03-06T02:57:49.868Z,72.6
2018-03-06T02:58:49.847Z,72.22
2018-03-06T02:59:50.805Z,71.66
2018-03-06T03:00:49.817Z,71
2018-03-06T03:01:49.905Z,70.43
2018-03-06T03:02:50.693Z,69.77
2018-03-06T03:03:49.760Z,69.39
2018-03-06T03:04:49.462Z,68.92
2018-03-06T03:05:49.443Z,69.11
2018-03-06T03:06:50.583Z,69.3
2018-03-06T03:07:49.674Z,69.86
2018-03-06T03:08:49.654Z,70.05
2018-03-06T03:09:49.634Z,70.05
2018-03-06T03:10:50.467Z,70.05
2018-03-06T03:11:49.610Z,70.53
2018-03-06T03:12:49.306Z,70.9
2018-03-06T03:13:49.289Z,71.09
2018-03-06T03:14:49.266Z,71.56
2018-03-06T03:15:49.554Z,71.66
2018-03-06T03:16:49.227Z,72.03
2018-03-06T03:17:49.211Z,71.66
2018-03-06T03:18:49.189Z,71.66
2018-03-06T03:19:49.440Z,70.9
2018-03-06T03:20:49.420Z,70.62
2018-03-06T03:21:50.129Z,70.81
2018-03-06T03:22:49.382Z,70.72
2018-03-06T03:23:49.359Z,70.81
2018-03-06T03:24:50.243Z,70.9
2018-03-06T03:25:49.326Z,70.53
2018-03-06T03:26:49.305Z,70.81
2018-03-06T03:27:50.147Z,71
2018-03-06T03:28:48.996Z,71.56
2018-03-06T03:29:49.242Z,71.37
2018-03-06T03:30:49.235Z,71.19
2018-03-06T03:31:48.936Z,71.37
2018-03-06T03:32:48.922Z,70.72
2018-03-06T03:33:49.166Z,70.43
2018-03-06T03:34:48.878Z,70.81
2018-03-06T03:35:49.136Z,71
2018-03-06T03:36:49.120Z,71.66
2018-03-06T03:37:48.818Z,72.03
2018-03-06T03:38:49.070Z,71.84
2018-03-06T03:39:48.781Z,71.84
2018-03-06T03:40:48.759Z,72.13
2018-03-06T03:41:49.008Z,72.13
2018-03-06T03:42:48.997Z,71.84
2018-03-06T03:43:49.819Z,70.9
2018-03-06T03:44:49.003Z,70.05
2018-03-06T03:45:48.939Z,69.67
2018-03-06T03:46:49.816Z,69.01
2018-03-06T03:47:48.892Z,69.3
2018-03-06T03:48:48.888Z,68.07
2018-03-06T03:49:49.827Z,68.35
2018-03-06T03:50:48.565Z,68.35
2018-03-06T03:51:48.827Z,68.44
2018-03-06T03:52:48.526Z,68.44
2018-03-06T03:53:49.475Z,68.54
2018-03-06T03:54:48.755Z,68.44
2018-03-06T03:55:48.733Z,68.54
2018-03-06T03:56:49.617Z,68.44
2018-03-06T03:57:48.706Z,67.79
2018-03-06T03:58:48.678Z,67.69
2018-03-06T03:59:48.665Z,67.6
2018-03-06T04:00:49.249Z,67.6
2018-03-06T04:01:48.351Z,67.13
2018-03-06T04:02:48.597Z,67.5
2018-03-06T04:03:49.514Z,67.6
2018-03-06T04:04:48.292Z,67.6
2018-03-06T04:05:48.271Z,67.5
2018-03-06T04:06:48.526Z,67.13
2018-03-06T04:07:48.501Z,67.03
2018-03-06T04:08:48.214Z,67.32
2018-03-06T04:09:48.468Z,67.79
2018-03-06T04:10:48.464Z,67.6
2018-03-06T04:11:48.424Z,67.6
2018-03-06T04:12:48.133Z,67.6
2018-03-06T04:13:48.448Z,67.6
2018-03-06T04:14:48.372Z,67.32
2018-03-06T04:15:49.294Z,67.13
2018-03-06T04:16:48.326Z,67.32
2018-03-06T04:17:48.302Z,67.22
2018-03-06T04:18:49.156Z,67.5
2018-03-06T04:19:48.266Z,67.32
2018-03-06T04:20:47.978Z,66.47
2018-03-06T04:21:48.240Z,66.18
2018-03-06T04:22:49.020Z,66.47
2018-03-06T04:23:48.193Z,66.47
2018-03-06T04:24:48.180Z,67.22
2018-03-06T04:25:48.872Z,67.22
2018-03-06T04:26:48.131Z,67.5
2018-03-06T04:27:48.115Z,67.41
2018-03-06T04:28:48.107Z,67.6
2018-03-06T04:29:47.801Z,67.97
2018-03-06T04:30:47.782Z,68.35
2018-03-06T04:31:47.770Z,68.07
2018-03-06T04:32:47.742Z,68.82
2018-03-06T04:33:48.016Z,68.54
2018-03-06T04:34:47.704Z,68.44
2018-03-06T04:35:47.686Z,68.92
2018-03-06T04:36:47.948Z,68.35
2018-03-06T04:37:47.645Z,68.63
2018-03-06T04:38:47.895Z,68.44
2018-03-06T04:39:47.608Z,69.3
2018-03-06T04:40:47.588Z,69.01
2018-03-06T04:41:47.572Z,69.49
2018-03-06T04:42:47.550Z,69.3
2018-03-06T04:43:47.797Z,69.2
2018-03-06T04:44:47.788Z,69.49
2018-03-06T04:45:47.757Z,69.67
2018-03-06T04:46:48.671Z,70.05
2018-03-06T04:47:47.739Z,69.86
2018-03-06T04:48:47.719Z,69.86
2018-03-06T04:49:47.411Z,70.05
2018-03-06T04:50:47.392Z,70.05
2018-03-06T04:51:47.641Z,70.15
2018-03-06T04:52:47.623Z,69.86
2018-03-06T04:53:48.416Z,69.3
2018-03-06T04:54:47.628Z,69.3
2018-03-06T04:55:47.577Z,69.01
2018-03-06T04:56:47.552Z,68.35
2018-03-06T04:57:47.526Z,68.44
2018-03-06T04:58:47.510Z,67.97
2018-03-06T04:59:47.490Z,67.88
2018-03-06T05:00:47.297Z,68.07
2018-03-06T05:01:47.450Z,67.69
2018-03-06T05:02:47.447Z,67.69
2018-03-06T05:03:47.414Z,67.69
2018-03-06T05:04:48.250Z,67.97
2018-03-06T05:05:47.100Z,68.82
2018-03-06T05:06:47.081Z,68.35
2018-03-06T05:07:47.060Z,68.44
2018-03-06T05:08:48.114Z,68.44
2018-03-06T05:09:47.303Z,68.54
2018-03-06T05:10:47.285Z,68.63
2018-03-06T05:11:48.235Z,68.63
2018-03-06T05:12:47.245Z,68.82
2018-03-06T05:13:47.248Z,68.35
2018-03-06T05:14:47.201Z,68.63
2018-03-06T05:15:47.200Z,68.92
2018-03-06T05:16:47.154Z,68.82
2018-03-06T05:17:47.529Z,69.67
2018-03-06T05:18:47.134Z,69.3
2018-03-06T05:19:47.104Z,69.3
2018-03-06T05:20:46.809Z,69.67
2018-03-06T05:21:48.032Z,69.86
2018-03-06T05:22:47.035Z,69.86
2018-03-06T05:23:46.751Z,69.39
2018-03-06T05:24:47.008Z,69.11
2018-03-06T05:25:47.764Z,68.82
2018-03-06T05:26:46.960Z,69.01
2018-03-06T05:27:46.949Z,69.01
2018-03-06T05:28:46.929Z,69.2
2018-03-06T05:29:47.751Z,69.01
2018-03-06T05:30:46.896Z,69.01
2018-03-06T05:31:46.592Z,69.2
2018-03-06T05:32:47.588Z,69.3
2018-03-06T05:33:46.841Z,69.01
2018-03-06T05:34:46.822Z,68.35
2018-03-06T05:35:46.517Z,68.92
2018-03-06T05:36:46.497Z,68.26
2018-03-06T05:37:46.765Z,67.69
2018-03-06T05:38:46.455Z,67.69
2018-03-06T05:39:46.729Z,67.88
2018-03-06T05:40:46.418Z,68.44
2018-03-06T05:41:46.674Z,68.44
2018-03-06T05:42:46.666Z,69.3
2018-03-06T05:43:46.638Z,69.67
2018-03-06T05:44:47.298Z,69.96
2018-03-06T05:45:46.588Z,70.05
2018-03-06T05:46:46.567Z,69.96
2018-03-06T05:47:46.578Z,69.58
2018-03-06T05:48:47.248Z,70.72
2018-03-06T05:49:46.241Z,71
2018-03-06T05:50:46.223Z,71.28
2018-03-06T05:51:47.273Z,71
2018-03-06T05:52:46.186Z,71.28
2018-03-06T05:53:46.437Z,71.37
2018-03-06T05:54:46.412Z,70.9
2018-03-06T05:55:47.322Z,71.09
2018-03-06T05:56:46.372Z,70.53
2018-03-06T05:57:46.087Z,69.86
2018-03-06T05:58:46.335Z,69.77
2018-03-06T05:59:46.046Z,70.15
2018-03-06T06:00:46.305Z,69.77
2018-03-06T06:01:46.297Z,70.05
2018-03-06T06:02:46.259Z,70.24
2018-03-06T06:03:46.968Z,69.67
2018-03-06T06:04:45.950Z,69.67
2018-03-06T06:05:45.931Z,69.96
2018-03-06T06:06:45.909Z,70.24
2018-03-06T06:07:46.211Z,70.62
2018-03-06T06:08:46.209Z,70.81
2018-03-06T06:09:46.164Z,71.75
2018-03-06T06:10:46.117Z,71.66
2018-03-06T06:11:46.860Z,70.72
2018-03-06T06:12:45.794Z,70.15
2018-03-06T06:13:46.032Z,69.67
2018-03-06T06:14:46.010Z,70.05
2018-03-06T06:15:45.997Z,70.34
2018-03-06T06:16:45.974Z,70.81
2018-03-06T06:17:45.697Z,71.66
2018-03-06T06:18:45.933Z,71.66
2018-03-06T06:19:45.914Z,72.13
2018-03-06T06:20:45.903Z,72.88
2018-03-06T06:21:45.884Z,72.41
2018-03-06T06:22:45.864Z,72.69
2018-03-06T06:23:45.580Z,72.13
2018-03-06T06:24:46.180Z,72.03
2018-03-06T06:25:45.803Z,72.22
2018-03-06T06:26:45.779Z,72.79
2018-03-06T06:27:45.802Z,72.03
2018-03-06T06:28:45.485Z,72.92
2018-03-06T06:29:45.464Z,73.49
2018-03-06T06:30:45.709Z,73.3
2018-03-06T06:31:45.427Z,73.68
2018-03-06T06:32:45.407Z,73.77
2018-03-06T06:33:45.644Z,74.62
2018-03-06T06:34:45.369Z,75.28
2018-03-06T06:35:45.608Z,75.57
2018-03-06T06:36:45.584Z,76.32
2018-03-06T06:37:45.591Z,76.79
2018-03-06T06:38:45.548Z,77.83
2018-03-06T06:39:45.528Z,78.31
2018-03-06T06:40:45.531Z,78.97
2018-03-06T06:41:45.496Z,78.87
2018-03-06T06:42:45.531Z,79.44
2018-03-06T06:43:45.464Z,80.29
2018-03-06T06:44:45.474Z,81.52
2018-03-06T06:45:45.413Z,82.37
2018-03-06T06:46:45.405Z,83.12
2018-03-06T06:47:45.121Z,83.59
2018-03-06T06:48:45.357Z,83.88
2018-03-06T06:49:45.337Z,83.88
2018-03-06T06:50:45.319Z,84.16
2018-03-06T06:51:45.300Z,84.54
2018-03-06T06:52:45.025Z,85.01
2018-03-06T06:53:45.268Z,85.11
2018-03-06T06:54:44.986Z,85.2
2018-03-06T06:55:45.225Z,86.24
2018-03-06T06:56:45.211Z,85.96
2018-03-06T06:57:44.929Z,87.18
2018-03-06T06:58:45.169Z,87.79
2018-03-06T06:59:44.896Z,88.93
2018-03-06T07:00:45.131Z,88.93
2018-03-06T07:01:44.856Z,88.93
2018-03-06T07:02:45.100Z,88.93
2018-03-06T07:03:44.818Z,89.69
2018-03-06T07:04:44.800Z,89.97
2018-03-06T07:05:44.780Z,89.97
2018-03-06T07:06:45.018Z,90.25
2018-03-06T07:07:45.000Z,90.73
2018-03-06T07:08:44.723Z,91.2
2018-03-06T07:09:44.964Z,91.77
2018-03-06T07:10:44.687Z,92.05
2018-03-06T07:11:44.927Z,92.52
2018-03-06T07:12:44.911Z,93.09
2018-03-06T07:13:44.631Z,93.18
2018-03-06T07:14:44.868Z,93.75
2018-03-06T07:15:44.919Z,94.7
2018-03-06T07:16:44.582Z,95.45
2018-03-06T07:17:44.815Z,95.45
2018-03-06T07:18:44.798Z,96.21
2018-03-06T07:19:44.521Z,96.96
2018-03-06T07:20:44.763Z,96.68
2018-03-06T07:21:44.740Z,96.4
2018-03-06T07:22:44.725Z,96.4
2018-03-06T07:23:44.757Z,96.3
2018-03-06T07:24:44.686Z,96.11
2018-03-06T07:25:44.670Z,96.49
2018-03-06T07:26:44.393Z,97.15
2018-03-06T07:27:44.632Z,99.14
2018-03-06T07:28:44.609Z,99.04
2018-03-06T07:29:44.624Z,98.85
2018-03-06T07:30:44.579Z,98.28
2018-03-06T07:31:44.558Z,98.33
2018-03-06T07:32:44.283Z,98.62
2018-03-06T07:33:44.529Z,99.09
2018-03-06T07:34:44.251Z,98.9
2018-03-06T07:35:44.486Z,99.99
2018-03-06T07:36:44.210Z,99.99
2018-03-06T07:37:44.453Z,99.57
2018-03-06T07:38:44.433Z,99.95
2018-03-06T07:39:44.414Z,99.95
2018-03-06T07:40:44.395Z,99.99
2018-03-06T07:41:44.392Z,99.99
2018-03-06T07:42:44.101Z,99.99
2018-03-06T07:43:44.083Z,99.99
2018-03-06T07:44:44.324Z,99.99
2018-03-06T07:45:44.048Z,99.99
2018-03-06T07:46:44.286Z,99.99
2018-03-06T07:47:44.271Z,99.99
2018-03-06T07:48:44.254Z,99.99
2018-03-06T07:49:44.236Z,99.99
2018-03-06T07:50:44.218Z,99.99
2018-03-06T07:51:43.942Z,99.99
2018-03-06T07:52:44.181Z,99.99
2018-03-06T07:53:44.164Z,99.99
2018-03-06T07:54:44.144Z,99.99
2018-03-06T07:55:44.129Z,99.99
2018-03-06T07:56:44.119Z,99.99
2018-03-06T07:57:43.837Z,99.99
2018-03-06T07:58:44.077Z,99.99
2018-03-06T07:59:43.798Z,99.99
2018-03-06T08:00:44.046Z,99.99
2018-03-06T08:01:44.023Z,99.99
2018-03-06T08:02:44.004Z,99.99
2018-03-06T08:03:43.988Z,99.99
2018-03-06T08:04:43.713Z,99.99
2018-03-06T08:05:43.954Z,99.99
2018-03-06T08:06:43.935Z,99.99
2018-03-06T08:07:43.661Z,99.99
2018-03-06T08:08:43.905Z,99.99
2018-03-06T08:09:43.626Z,99.99
2018-03-06T08:10:43.865Z,99.99
2018-03-06T08:11:43.954Z,99.99
2018-03-06T08:12:43.830Z,99.99
2018-03-06T08:13:43.813Z,99.99
2018-03-06T08:14:43.795Z,99.99
2018-03-06T08:15:43.781Z,99.99
2018-03-06T08:16:43.761Z,99.99
2018-03-06T08:17:43.752Z,99.99
2018-03-06T08:18:43.725Z,99.99
2018-03-06T08:19:43.714Z,99.99
2018-03-06T08:20:43.436Z,99.99
2018-03-06T08:21:43.676Z,99.99
2018-03-06T08:22:43.664Z,99.99
2018-03-06T08:23:43.640Z,99.99
2018-03-06T08:24:43.624Z,99.99
2018-03-06T08:25:43.352Z,99.99
2018-03-06T08:26:43.334Z,99.99
2018-03-06T08:27:43.580Z,99.99
2018-03-06T08:28:43.303Z,99.99
2018-03-06T08:29:43.543Z,99.99
2018-03-06T08:30:43.524Z,99.99
2018-03-06T08:31:43.508Z,99.99
2018-03-06T08:32:43.488Z,99.99
2018-03-06T08:33:43.474Z,99.99
2018-03-06T08:34:43.456Z,99.99
2018-03-06T08:35:43.189Z,99.99
2018-03-06T08:36:43.166Z,99.99
2018-03-06T08:37:43.186Z,99.99
2018-03-06T08:38:43.392Z,99.99
2018-03-06T08:39:43.117Z,99.99
2018-03-06T08:40:43.356Z,99.99
2018-03-06T08:41:43.338Z,99.99
2018-03-06T08:42:43.325Z,99.99
2018-03-06T08:43:43.305Z,99.99
2018-03-06T08:44:43.289Z,99.99
2018-03-06T08:45:43.276Z,99.99
2018-03-06T08:46:43.255Z,99.99
2018-03-06T08:47:42.982Z,99.99
2018-03-06T08:48:43.229Z,99.99
2018-03-06T08:49:43.213Z,99.99
2018-03-06T08:50:43.193Z,99.99
2018-03-06T08:51:43.175Z,99.99
2018-03-06T08:52:43.159Z,99.99
2018-03-06T08:53:43.147Z,99.99
2018-03-06T08:54:42.868Z,99.99
2018-03-06T08:55:43.111Z,99.99
2018-03-06T08:56:43.091Z,99.99
2018-03-06T08:57:43.150Z,99.99
2018-03-06T08:58:43.059Z,99.99
2018-03-06T08:59:42.785Z,99.99
2018-03-06T09:00:43.028Z,99.99
2018-03-06T09:01:43.014Z,99.99
2018-03-06T09:02:42.992Z,99.99
2018-03-06T09:03:43.082Z,99.99
2018-03-06T09:04:42.704Z,99.99
2018-03-06T09:05:42.687Z,99.99
2018-03-06T09:06:42.672Z,99.99
2018-03-06T09:07:42.911Z,99.99
2018-03-06T09:08:42.904Z,99.99
2018-03-06T09:09:42.623Z,99.99
2018-03-06T09:10:42.607Z,99.99
2018-03-06T09:11:42.847Z,99.99
2018-03-06T09:12:42.831Z,99.99
2018-03-06T09:13:42.819Z,99.99
2018-03-06T09:14:42.802Z,99.99
2018-03-06T09:15:42.786Z,99.99
2018-03-06T09:16:42.768Z,99.99
2018-03-06T09:17:42.754Z,99.99
2018-03-06T09:18:42.738Z,99.99
2018-03-06T09:19:42.463Z,99.99
2018-03-06T09:20:42.706Z,99.99
2018-03-06T09:21:42.692Z,99.99
2018-03-06T09:22:42.413Z,99.99
2018-03-06T09:23:42.659Z,99.99
2018-03-06T09:24:42.646Z,99.99
2018-03-06T09:25:42.624Z,99.99
2018-03-06T09:26:42.613Z,99.99
2018-03-06T09:27:42.593Z,99.99
2018-03-06T09:28:42.583Z,99.99
2018-03-06T09:29:42.308Z,99.99
2018-03-06T09:30:42.546Z,99.99
2018-03-06T09:31:42.531Z,99.99
2018-03-06T09:32:42.514Z,99.99
2018-03-06T09:33:42.500Z,99.99
2018-03-06T09:34:42.483Z,99.99
2018-03-06T09:35:42.474Z,99.99
2018-03-06T09:36:42.453Z,99.99
2018-03-06T09:37:42.434Z,99.99
2018-03-06T09:38:42.423Z,99.99
2018-03-06T09:39:42.405Z,99.99
2018-03-06T09:40:42.391Z,99.99
2018-03-06T09:41:42.386Z,99.99
2018-03-06T09:42:42.361Z,99.99
2018-03-06T09:43:42.086Z,99.99
2018-03-06T09:44:42.071Z,99.99
2018-03-06T09:45:42.311Z,99.99
2018-03-06T09:46:42.297Z,99.99
2018-03-06T09:47:42.279Z,99.99
2018-03-06T09:48:42.269Z,99.99
2018-03-06T09:49:42.252Z,99.99
2018-03-06T09:50:42.240Z,99.99
2018-03-06T09:51:42.218Z,99.99
2018-03-06T09:52:42.204Z,99.99
2018-03-06T09:53:41.931Z,99.86
2018-03-06T09:54:42.175Z,99.77
2018-03-06T09:55:42.157Z,99.67
2018-03-06T09:56:42.142Z,99.99
2018-03-06T09:57:41.870Z,99.99
2018-03-06T09:58:42.112Z,99.99
2018-03-06T09:59:42.099Z,99.99
2018-03-06T10:00:42.083Z,99.99
2018-03-06T10:01:42.067Z,99.99
2018-03-06T10:02:41.795Z,99.86
2018-03-06T10:03:42.040Z,99.58
2018-03-06T10:04:42.021Z,99.77
2018-03-06T10:05:42.006Z,99.96
2018-03-06T10:06:41.735Z,99.29
2018-03-06T10:07:41.977Z,99.1
2018-03-06T10:08:41.961Z,98.91
2018-03-06T10:09:41.947Z,98.72
2018-03-06T10:10:41.932Z,98.35
2018-03-06T10:11:41.662Z,98.91
2018-03-06T10:12:41.645Z,98.63
2018-03-06T10:13:41.887Z,99.67
2018-03-06T10:14:41.871Z,98.96
2018-03-06T10:15:41.857Z,98.68
2018-03-06T10:16:41.844Z,98.21
2018-03-06T10:17:41.831Z,98.49
2018-03-06T10:18:41.557Z,98.77
2018-03-06T10:19:41.799Z,98.3
2018-03-06T10:20:41.784Z,98.39
2018-03-06T10:21:41.768Z,97.54
2018-03-06T10:22:41.763Z,97.54
2018-03-06T10:23:41.742Z,97.64
2018-03-06T10:24:41.468Z,98.39
2018-03-06T10:25:41.458Z,98.3
2018-03-06T10:26:41.699Z,97.73
2018-03-06T10:27:41.681Z,97.73
2018-03-06T10:28:41.410Z,97.16
2018-03-06T10:29:41.651Z,97.35
2018-03-06T10:30:41.636Z,97.83
2018-03-06T10:31:41.626Z,97.83
2018-03-06T10:32:41.351Z,97.83
2018-03-06T10:33:41.596Z,97.78
2018-03-06T10:34:41.321Z,98.16
2018-03-06T10:35:41.564Z,98.44
2018-03-06T10:36:41.550Z,98.44
2018-03-06T10:37:41.536Z,98.91
2018-03-06T10:38:41.521Z,98.72
2018-03-06T10:39:41.248Z,98.63
2018-03-06T10:40:41.490Z,98.39
2018-03-06T10:41:41.219Z,98.3
2018-03-06T10:42:41.461Z,98.68
2018-03-06T10:43:41.447Z,98.02
2018-03-06T10:44:41.431Z,97.35
2018-03-06T10:45:41.160Z,97.54
2018-03-06T10:46:41.403Z,97.92
2018-03-06T10:47:41.390Z,96.31
2018-03-06T10:48:41.374Z,95.17
2018-03-06T10:49:41.122Z,95.17
2018-03-06T10:50:41.087Z,96.12
2018-03-06T10:51:41.072Z,96.31
2018-03-06T10:52:41.057Z,97.07
2018-03-06T10:53:41.301Z,96.97
2018-03-06T10:54:41.029Z,97.45
2018-03-06T10:55:41.272Z,97.54
2018-03-06T10:56:41.257Z,97.35
2018-03-06T10:57:41.247Z,97.45
2018-03-06T10:58:41.227Z,97.26
2018-03-06T10:59:41.217Z,97.07
2018-03-06T11:00:41.198Z,96.5
2018-03-06T11:01:40.928Z,97.16
2018-03-06T11:02:40.912Z,97.16
2018-03-06T11:03:41.156Z,97.16
2018-03-06T11:04:41.141Z,96.97
2018-03-06T11:05:40.869Z,97.16
2018-03-06T11:06:41.112Z,97.07
2018-03-06T11:07:41.097Z,97.35
2018-03-06T11:08:41.082Z,97.35
2018-03-06T11:09:40.808Z,98.02
2018-03-06T11:10:40.795Z,98.39
2018-03-06T11:11:41.040Z,98.39
2018-03-06T11:12:41.040Z,97.92
2018-03-06T11:13:41.008Z,97.45
2018-03-06T11:14:40.736Z,97.92
2018-03-06T11:15:40.980Z,98.49
2018-03-06T11:16:40.965Z,98.39
2018-03-06T11:17:40.948Z,97.92
2018-03-06T11:18:40.936Z,97.83
2018-03-06T11:19:40.927Z,97.73
2018-03-06T11:20:40.648Z,98.11
2018-03-06T11:21:40.889Z,97.73
2018-03-06T11:22:40.880Z,98.49
2018-03-06T11:23:40.877Z,98.77
2018-03-06T11:24:40.888Z,99.63
2018-03-06T11:25:40.575Z,98.96
2018-03-06T11:26:40.820Z,98.77
2018-03-06T11:27:40.808Z,98.39
2018-03-06T11:28:40.533Z,98.11
2018-03-06T11:29:40.520Z,98.49
2018-03-06T11:30:40.764Z,98.21
2018-03-06T11:31:40.748Z,98.77
2018-03-06T11:32:40.734Z,98.77
2018-03-06T11:33:40.720Z,98.21
2018-03-06T11:34:40.705Z,98.49
2018-03-06T11:35:40.688Z,98.87
2018-03-06T11:36:40.418Z,98.77
2018-03-06T11:37:40.664Z,99.15
2018-03-06T11:38:40.645Z,99.29
2018-03-06T11:39:40.631Z,99.53
2018-03-06T11:40:40.622Z,99.15
2018-03-06T11:41:40.603Z,98.77
2018-03-06T11:42:40.330Z,98.96
2018-03-06T11:43:40.575Z,99.34
2018-03-06T11:44:40.562Z,99.67
2018-03-06T11:45:40.289Z,99.99
2018-03-06T11:46:40.534Z,99.99
2018-03-06T11:47:40.516Z,99.99
2018-03-06T11:48:40.503Z,99.99
2018-03-06T11:49:40.488Z,98.96
2018-03-06T11:50:40.472Z,99.06
2018-03-06T11:51:40.202Z,99.15
2018-03-06T11:52:40.187Z,99.91
2018-03-06T11:53:40.430Z,99.1
2018-03-06T11:54:40.417Z,99.72
2018-03-06T11:55:40.143Z,99.99
2018-03-06T11:56:40.389Z,99.99
2018-03-06T11:57:40.379Z,99.99
2018-03-06T11:58:40.359Z,99.63
2018-03-06T11:59:40.343Z,98.68
2018-03-06T12:00:40.329Z,98.21
2018-03-06T12:01:40.314Z,98.96
2018-03-06T12:02:40.305Z,98.58
2018-03-06T12:03:40.286Z,97.07
2018-03-06T12:04:40.271Z,97.07
2018-03-06T12:05:40.257Z,96.88
2018-03-06T12:06:39.986Z,96.59
2018-03-06T12:07:40.233Z,95.93
2018-03-06T12:08:40.215Z,95.93
2018-03-06T12:09:40.196Z,95.93
2018-03-06T12:10:39.928Z,96.41
2018-03-06T12:11:40.170Z,97.07
2018-03-06T12:12:40.160Z,97.26
2018-03-06T12:13:39.883Z,98.02
2018-03-06T12:14:40.127Z,98.21
2018-03-06T12:15:40.111Z,97.83
2018-03-06T12:16:40.100Z,97.59
2018-03-06T12:17:40.086Z,98.11
2018-03-06T12:18:40.106Z,98.58
2018-03-06T12:19:39.796Z,98.58
2018-03-06T12:20:40.040Z,98.58
2018-03-06T12:21:40.024Z,98.49
2018-03-06T12:22:40.016Z,97.68
2018-03-06T12:23:39.999Z,98.25
2018-03-06T12:24:39.725Z,98.25
2018-03-06T12:25:39.969Z,98.16
2018-03-06T12:26:39.954Z,98.35
2018-03-06T12:27:39.941Z,98.44
2018-03-06T12:28:39.924Z,98.63
2018-03-06T12:29:39.907Z,98.35
2018-03-06T12:30:39.893Z,98.16
2018-03-06T12:31:39.878Z,98.25
2018-03-06T12:32:39.609Z,98.25
2018-03-06T12:33:39.853Z,98.63
2018-03-06T12:34:39.837Z,99.01
2018-03-06T12:35:39.821Z,99.58
2018-03-06T12:36:39.806Z,99.29
2018-03-06T12:37:39.534Z,99.48
2018-03-06T12:38:39.780Z,99.77
2018-03-06T12:39:39.761Z,99.77
2018-03-06T12:40:39.747Z,99.96
2018-03-06T12:41:39.729Z,99.99
2018-03-06T12:42:39.718Z,99.99
2018-03-06T12:43:39.444Z,99.99
2018-03-06T12:44:39.689Z,99.99
2018-03-06T12:45:39.675Z,99.99
2018-03-06T12:46:39.658Z,99.99
2018-03-06T12:47:39.384Z,99.99
2018-03-06T12:48:39.370Z,99.99
2018-03-06T12:49:39.354Z,99.99
2018-03-06T12:50:39.599Z,99.99
2018-03-06T12:51:39.581Z,99.99
2018-03-06T12:52:39.571Z,99.99
2018-03-06T12:53:39.292Z,99.99
2018-03-06T12:54:39.288Z,99.99
2018-03-06T12:55:39.530Z,99.99